sensor_id;sensor_type;location;lat;lon;timestamp;temperature;humidity
53310;DHT22;39197;53.200;5.792;2023-06-10T00:02:03;17.50;99.90
53310;DHT22;39197;53.200;5.792;2023-06-10T00:04:29;17.40;99.90
53310;DHT22;39197;53.200;5.792;2023-06-10T00:06:55;17.40;99.90
53310;DHT22;39197;53.200;5.792;2023-06-10T00:09:20;17.40;99.90
53310;DHT22;39197;53.200;5.792;2023-06-10T00:11:47;17.40;99.90
53310;DHT22;39197;53.200;5.792;2023-06-10T00:14:13;17.40;99.90
53310;DHT22;39197;53.200;5.792;2023-06-10T00:16:39;17.40;99.90
53310;DHT22;39197;53.200;5.792;2023-06-10T00:19:05;17.40;99.90
53310;DHT22;39197;53.200;5.792;2023-06-10T00:21:33;17.40;99.90
53310;DHT22;39197;53.200;5.792;2023-06-10T00:24:06;17.40;99.90
53310;DHT22;39197;53.200;5.792;2023-06-10T00:26:32;17.40;99.90
53310;DHT22;39197;53.200;5.792;2023-06-10T00:28:59;17.30;99.90
53310;DHT22;39197;53.200;5.792;2023-06-10T00:31:25;17.30;99.90
53310;DHT22;39197;53.200;5.792;2023-06-10T00:33:54;17.30;99.90
53310;DHT22;39197;53.200;5.792;2023-06-10T00:36:20;17.30;99.90
53310;DHT22;39197;53.200;5.792;2023-06-10T00:38:46;17.20;99.90
53310;DHT22;39197;53.200;5.792;2023-06-10T00:41:12;17.20;99.90
53310;DHT22;39197;53.200;5.792;2023-06-10T00:43:37;17.20;99.90
53310;DHT22;39197;53.200;5.792;2023-06-10T00:46:03;17.10;99.90
53310;DHT22;39197;53.200;5.792;2023-06-10T00:48:29;17.20;99.90
53310;DHT22;39197;53.200;5.792;2023-06-10T00:50:54;17.10;99.90
53310;DHT22;39197;53.200;5.792;2023-06-10T00:53:21;17.10;99.90
53310;DHT22;39197;53.200;5.792;2023-06-10T00:55:48;17.10;99.90
53310;DHT22;39197;53.200;5.792;2023-06-10T00:58:13;17.10;99.90
53310;DHT22;39197;53.200;5.792;2023-06-10T01:00:41;17.10;99.90
53310;DHT22;39197;53.200;5.792;2023-06-10T01:03:06;17.10;99.90
53310;DHT22;39197;53.200;5.792;2023-06-10T01:05:34;17.00;99.90
53310;DHT22;39197;53.200;5.792;2023-06-10T01:08:16;17.10;99.90
53310;DHT22;39197;53.200;5.792;2023-06-10T01:10:57;16.90;99.90
53310;DHT22;39197;53.200;5.792;2023-06-10T01:13:24;16.90;99.90
53310;DHT22;39197;53.200;5.792;2023-06-10T01:15:55;16.90;99.90
53310;DHT22;39197;53.200;5.792;2023-06-10T01:18:21;16.90;99.90
53310;DHT22;39197;53.200;5.792;2023-06-10T01:20:47;16.90;99.90
53310;DHT22;39197;53.200;5.792;2023-06-10T01:23:14;16.90;99.90
53310;DHT22;39197;53.200;5.792;2023-06-10T01:25:58;16.80;99.90
53310;DHT22;39197;53.200;5.792;2023-06-10T01:28:36;16.90;99.90
53310;DHT22;39197;53.200;5.792;2023-06-10T01:31:17;16.80;99.90
53310;DHT22;39197;53.200;5.792;2023-06-10T01:33:51;16.80;99.90
53310;DHT22;39197;53.200;5.792;2023-06-10T01:36:19;16.80;99.90
53310;DHT22;39197;53.200;5.792;2023-06-10T01:38:47;16.70;99.90
53310;DHT22;39197;53.200;5.792;2023-06-10T01:41:14;16.70;99.90
53310;DHT22;39197;53.200;5.792;2023-06-10T01:43:43;16.60;99.90
53310;DHT22;39197;53.200;5.792;2023-06-10T01:46:09;16.60;99.90
53310;DHT22;39197;53.200;5.792;2023-06-10T01:48:37;16.60;99.90
53310;DHT22;39197;53.200;5.792;2023-06-10T01:51:02;16.50;99.90
53310;DHT22;39197;53.200;5.792;2023-06-10T01:53:28;16.50;99.90
53310;DHT22;39197;53.200;5.792;2023-06-10T01:55:54;16.40;99.90
53310;DHT22;39197;53.200;5.792;2023-06-10T01:58:19;16.50;99.90
53310;DHT22;39197;53.200;5.792;2023-06-10T02:00:45;16.40;99.90
53310;DHT22;39197;53.200;5.792;2023-06-10T02:03:11;16.40;99.90
53310;DHT22;39197;53.200;5.792;2023-06-10T02:05:36;16.30;99.90
53310;DHT22;39197;53.200;5.792;2023-06-10T02:08:02;16.30;99.90
53310;DHT22;39197;53.200;5.792;2023-06-10T02:10:28;16.30;99.90
53310;DHT22;39197;53.200;5.792;2023-06-10T02:12:53;16.30;99.90
53310;DHT22;39197;53.200;5.792;2023-06-10T02:15:19;16.30;99.90
53310;DHT22;39197;53.200;5.792;2023-06-10T02:17:44;16.20;99.90
53310;DHT22;39197;53.200;5.792;2023-06-10T02:20:10;16.20;99.90
53310;DHT22;39197;53.200;5.792;2023-06-10T02:22:37;16.20;99.90
53310;DHT22;39197;53.200;5.792;2023-06-10T02:25:04;16.10;99.90
53310;DHT22;39197;53.200;5.792;2023-06-10T02:27:30;16.10;99.90
53310;DHT22;39197;53.200;5.792;2023-06-10T02:29:57;16.00;99.90
53310;DHT22;39197;53.200;5.792;2023-06-10T02:32:22;16.00;99.90
53310;DHT22;39197;53.200;5.792;2023-06-10T02:34:48;15.90;99.90
53310;DHT22;39197;53.200;5.792;2023-06-10T02:37:15;15.90;99.90
53310;DHT22;39197;53.200;5.792;2023-06-10T02:39:41;15.80;99.90
53310;DHT22;39197;53.200;5.792;2023-06-10T02:42:07;15.80;99.90
53310;DHT22;39197;53.200;5.792;2023-06-10T02:44:33;15.80;99.90
53310;DHT22;39197;53.200;5.792;2023-06-10T02:46:58;15.70;99.90
53310;DHT22;39197;53.200;5.792;2023-06-10T02:49:25;15.70;99.90
53310;DHT22;39197;53.200;5.792;2023-06-10T02:51:53;15.70;99.90
53310;DHT22;39197;53.200;5.792;2023-06-10T02:54:22;15.60;99.90
53310;DHT22;39197;53.200;5.792;2023-06-10T02:56:48;15.60;99.90
53310;DHT22;39197;53.200;5.792;2023-06-10T02:59:14;15.60;99.90
53310;DHT22;39197;53.200;5.792;2023-06-10T03:01:40;15.60;99.90
53310;DHT22;39197;53.200;5.792;2023-06-10T03:04:06;15.50;99.90
53310;DHT22;39197;53.200;5.792;2023-06-10T03:06:32;15.50;99.90
53310;DHT22;39197;53.200;5.792;2023-06-10T03:09:04;15.50;99.90
53310;DHT22;39197;53.200;5.792;2023-06-10T03:11:30;15.50;99.90
53310;DHT22;39197;53.200;5.792;2023-06-10T03:13:57;15.40;99.90
53310;DHT22;39197;53.200;5.792;2023-06-10T03:16:23;15.40;99.90
53310;DHT22;39197;53.200;5.792;2023-06-10T03:18:50;15.40;99.90
53310;DHT22;39197;53.200;5.792;2023-06-10T03:21:16;15.30;99.90
53310;DHT22;39197;53.200;5.792;2023-06-10T03:23:42;15.30;99.90
53310;DHT22;39197;53.200;5.792;2023-06-10T03:26:07;15.30;99.90
53310;DHT22;39197;53.200;5.792;2023-06-10T03:28:33;15.30;99.90
53310;DHT22;39197;53.200;5.792;2023-06-10T03:30:59;15.30;99.90
53310;DHT22;39197;53.200;5.792;2023-06-10T03:33:24;15.30;99.90
53310;DHT22;39197;53.200;5.792;2023-06-10T03:35:51;15.20;99.90
53310;DHT22;39197;53.200;5.792;2023-06-10T03:38:16;15.20;99.90
53310;DHT22;39197;53.200;5.792;2023-06-10T03:40:42;15.20;99.90
53310;DHT22;39197;53.200;5.792;2023-06-10T03:43:08;15.20;99.90
53310;DHT22;39197;53.200;5.792;2023-06-10T03:45:34;15.20;99.90
53310;DHT22;39197;53.200;5.792;2023-06-10T03:48:00;15.20;99.90
53310;DHT22;39197;53.200;5.792;2023-06-10T03:50:26;15.10;99.90
53310;DHT22;39197;53.200;5.792;2023-06-10T03:52:52;15.10;99.90
53310;DHT22;39197;53.200;5.792;2023-06-10T03:55:18;15.20;99.90
53310;DHT22;39197;53.200;5.792;2023-06-10T03:57:47;15.20;99.90
53310;DHT22;39197;53.200;5.792;2023-06-10T04:00:14;15.10;99.90
53310;DHT22;39197;53.200;5.792;2023-06-10T04:02:41;15.10;99.90
53310;DHT22;39197;53.200;5.792;2023-06-10T04:05:14;15.20;99.90
53310;DHT22;39197;53.200;5.792;2023-06-10T04:07:40;15.10;99.90
53310;DHT22;39197;53.200;5.792;2023-06-10T04:10:08;15.10;99.90
53310;DHT22;39197;53.200;5.792;2023-06-10T04:12:34;15.10;99.90
53310;DHT22;39197;53.200;5.792;2023-06-10T04:15:00;15.10;99.90
53310;DHT22;39197;53.200;5.792;2023-06-10T04:17:25;15.10;99.90
53310;DHT22;39197;53.200;5.792;2023-06-10T04:19:52;15.10;99.90
53310;DHT22;39197;53.200;5.792;2023-06-10T04:22:18;15.10;99.90
53310;DHT22;39197;53.200;5.792;2023-06-10T04:24:44;15.10;99.90
53310;DHT22;39197;53.200;5.792;2023-06-10T04:27:09;15.10;99.90
53310;DHT22;39197;53.200;5.792;2023-06-10T04:29:35;15.10;99.90
53310;DHT22;39197;53.200;5.792;2023-06-10T04:32:01;15.00;99.90
53310;DHT22;39197;53.200;5.792;2023-06-10T04:34:27;15.10;99.90
53310;DHT22;39197;53.200;5.792;2023-06-10T04:36:53;15.00;99.90
53310;DHT22;39197;53.200;5.792;2023-06-10T04:39:19;15.10;99.90
53310;DHT22;39197;53.200;5.792;2023-06-10T04:41:45;15.10;99.90
53310;DHT22;39197;53.200;5.792;2023-06-10T04:44:12;15.10;99.90
53310;DHT22;39197;53.200;5.792;2023-06-10T04:46:38;15.10;99.90
53310;DHT22;39197;53.200;5.792;2023-06-10T04:49:03;15.10;99.90
53310;DHT22;39197;53.200;5.792;2023-06-10T04:51:30;15.10;99.90
53310;DHT22;39197;53.200;5.792;2023-06-10T04:53:57;15.10;99.90
53310;DHT22;39197;53.200;5.792;2023-06-10T04:56:23;15.20;99.90
53310;DHT22;39197;53.200;5.792;2023-06-10T04:58:49;15.20;99.90
53310;DHT22;39197;53.200;5.792;2023-06-10T05:01:15;15.20;99.90
53310;DHT22;39197;53.200;5.792;2023-06-10T05:03:41;15.30;99.90
53310;DHT22;39197;53.200;5.792;2023-06-10T05:06:07;15.30;99.90
53310;DHT22;39197;53.200;5.792;2023-06-10T05:08:33;15.40;99.90
53310;DHT22;39197;53.200;5.792;2023-06-10T05:10:59;15.40;99.90
53310;DHT22;39197;53.200;5.792;2023-06-10T05:13:24;15.50;99.90
53310;DHT22;39197;53.200;5.792;2023-06-10T05:15:50;15.50;99.90
53310;DHT22;39197;53.200;5.792;2023-06-10T05:18:15;15.50;99.90
53310;DHT22;39197;53.200;5.792;2023-06-10T05:20:41;15.50;99.90
53310;DHT22;39197;53.200;5.792;2023-06-10T05:23:07;15.60;99.90
53310;DHT22;39197;53.200;5.792;2023-06-10T05:25:33;15.50;99.90
53310;DHT22;39197;53.200;5.792;2023-06-10T05:27:59;15.50;99.90
53310;DHT22;39197;53.200;5.792;2023-06-10T05:30:24;15.50;99.90
53310;DHT22;39197;53.200;5.792;2023-06-10T05:32:51;15.40;99.90
53310;DHT22;39197;53.200;5.792;2023-06-10T05:35:18;15.50;99.90
53310;DHT22;39197;53.200;5.792;2023-06-10T05:37:44;15.50;99.90
53310;DHT22;39197;53.200;5.792;2023-06-10T05:40:10;15.50;99.90
53310;DHT22;39197;53.200;5.792;2023-06-10T05:42:36;15.50;99.90
53310;DHT22;39197;53.200;5.792;2023-06-10T05:45:02;15.60;99.90
53310;DHT22;39197;53.200;5.792;2023-06-10T05:47:28;15.50;99.90
53310;DHT22;39197;53.200;5.792;2023-06-10T05:49:54;15.60;99.90
53310;DHT22;39197;53.200;5.792;2023-06-10T05:52:19;15.60;99.90
53310;DHT22;39197;53.200;5.792;2023-06-10T05:54:45;15.80;99.90
53310;DHT22;39197;53.200;5.792;2023-06-10T05:57:11;15.70;99.90
53310;DHT22;39197;53.200;5.792;2023-06-10T05:59:40;15.70;99.90
53310;DHT22;39197;53.200;5.792;2023-06-10T06:02:05;15.80;99.90
53310;DHT22;39197;53.200;5.792;2023-06-10T06:04:31;15.90;99.90
53310;DHT22;39197;53.200;5.792;2023-06-10T06:06:57;16.00;99.90
53310;DHT22;39197;53.200;5.792;2023-06-10T06:09:23;16.10;99.90
53310;DHT22;39197;53.200;5.792;2023-06-10T06:11:48;16.10;99.90
53310;DHT22;39197;53.200;5.792;2023-06-10T06:14:14;16.20;99.90
53310;DHT22;39197;53.200;5.792;2023-06-10T06:16:40;16.30;99.90
53310;DHT22;39197;53.200;5.792;2023-06-10T06:19:06;16.30;99.90
53310;DHT22;39197;53.200;5.792;2023-06-10T06:21:31;16.40;99.90
53310;DHT22;39197;53.200;5.792;2023-06-10T06:23:57;16.40;99.90
53310;DHT22;39197;53.200;5.792;2023-06-10T06:26:23;16.50;99.90
53310;DHT22;39197;53.200;5.792;2023-06-10T06:28:49;16.50;99.90
53310;DHT22;39197;53.200;5.792;2023-06-10T06:31:14;16.60;99.90
53310;DHT22;39197;53.200;5.792;2023-06-10T06:33:40;16.80;99.90
53310;DHT22;39197;53.200;5.792;2023-06-10T06:36:06;16.90;99.90
53310;DHT22;39197;53.200;5.792;2023-06-10T06:38:31;17.00;99.90
53310;DHT22;39197;53.200;5.792;2023-06-10T06:40:57;17.10;99.90
53310;DHT22;39197;53.200;5.792;2023-06-10T06:43:28;17.10;99.90
53310;DHT22;39197;53.200;5.792;2023-06-10T06:45:55;17.10;99.90
53310;DHT22;39197;53.200;5.792;2023-06-10T06:48:21;17.20;99.90
53310;DHT22;39197;53.200;5.792;2023-06-10T06:50:46;17.30;99.90
53310;DHT22;39197;53.200;5.792;2023-06-10T06:53:12;17.40;99.90
53310;DHT22;39197;53.200;5.792;2023-06-10T06:55:39;17.40;99.90
53310;DHT22;39197;53.200;5.792;2023-06-10T06:58:05;17.60;99.90
53310;DHT22;39197;53.200;5.792;2023-06-10T07:00:31;17.70;99.90
53310;DHT22;39197;53.200;5.792;2023-06-10T07:02:57;17.80;99.90
53310;DHT22;39197;53.200;5.792;2023-06-10T07:05:24;18.00;99.90
53310;DHT22;39197;53.200;5.792;2023-06-10T07:07:52;18.00;99.90
53310;DHT22;39197;53.200;5.792;2023-06-10T07:10:24;18.10;99.90
53310;DHT22;39197;53.200;5.792;2023-06-10T07:12:51;18.20;99.90
53310;DHT22;39197;53.200;5.792;2023-06-10T07:15:16;18.50;99.90
53310;DHT22;39197;53.200;5.792;2023-06-10T07:17:42;19.00;99.90
53310;DHT22;39197;53.200;5.792;2023-06-10T07:20:08;19.80;99.90
53310;DHT22;39197;53.200;5.792;2023-06-10T07:22:34;20.70;99.90
53310;DHT22;39197;53.200;5.792;2023-06-10T07:25:03;21.60;99.90
53310;DHT22;39197;53.200;5.792;2023-06-10T07:27:29;22.40;99.90
53310;DHT22;39197;53.200;5.792;2023-06-10T07:29:56;23.00;99.90
53310;DHT22;39197;53.200;5.792;2023-06-10T07:32:22;23.10;99.90
53310;DHT22;39197;53.200;5.792;2023-06-10T07:34:49;23.50;99.90
53310;DHT22;39197;53.200;5.792;2023-06-10T07:37:16;23.70;99.90
53310;DHT22;39197;53.200;5.792;2023-06-10T07:39:41;23.90;99.90
53310;DHT22;39197;53.200;5.792;2023-06-10T07:42:08;24.00;99.90
53310;DHT22;39197;53.200;5.792;2023-06-10T07:44:34;24.20;99.90
53310;DHT22;39197;53.200;5.792;2023-06-10T07:47:00;24.40;99.90
53310;DHT22;39197;53.200;5.792;2023-06-10T07:49:29;24.50;99.90
53310;DHT22;39197;53.200;5.792;2023-06-10T07:52:00;25.10;99.90
53310;DHT22;39197;53.200;5.792;2023-06-10T07:54:28;25.40;99.90
53310;DHT22;39197;53.200;5.792;2023-06-10T07:56:54;25.60;99.90
53310;DHT22;39197;53.200;5.792;2023-06-10T07:59:20;25.50;99.90
53310;DHT22;39197;53.200;5.792;2023-06-10T08:01:45;25.70;99.90
53310;DHT22;39197;53.200;5.792;2023-06-10T08:04:11;26.00;99.90
53310;DHT22;39197;53.200;5.792;2023-06-10T08:06:37;26.20;99.90
53310;DHT22;39197;53.200;5.792;2023-06-10T08:09:03;26.20;99.90
53310;DHT22;39197;53.200;5.792;2023-06-10T08:11:29;26.30;99.90
53310;DHT22;39197;53.200;5.792;2023-06-10T08:13:55;26.30;99.90
53310;DHT22;39197;53.200;5.792;2023-06-10T08:16:21;26.10;99.90
53310;DHT22;39197;53.200;5.792;2023-06-10T08:18:47;26.40;99.90
53310;DHT22;39197;53.200;5.792;2023-06-10T08:21:15;26.70;99.90
53310;DHT22;39197;53.200;5.792;2023-06-10T08:23:41;26.70;99.90
53310;DHT22;39197;53.200;5.792;2023-06-10T08:26:07;26.60;99.60
53310;DHT22;39197;53.200;5.792;2023-06-10T08:28:32;26.50;99.50
53310;DHT22;39197;53.200;5.792;2023-06-10T08:30:58;26.80;98.30
53310;DHT22;39197;53.200;5.792;2023-06-10T08:33:24;26.60;98.30
53310;DHT22;39197;53.200;5.792;2023-06-10T08:35:49;26.70;97.70
53310;DHT22;39197;53.200;5.792;2023-06-10T08:38:16;26.70;98.00
53310;DHT22;39197;53.200;5.792;2023-06-10T08:40:42;27.00;97.80
53310;DHT22;39197;53.200;5.792;2023-06-10T08:43:21;27.10;97.20
53310;DHT22;39197;53.200;5.792;2023-06-10T08:45:49;27.10;95.90
53310;DHT22;39197;53.200;5.792;2023-06-10T08:48:17;26.80;96.00
53310;DHT22;39197;53.200;5.792;2023-06-10T08:50:44;26.60;96.00
53310;DHT22;39197;53.200;5.792;2023-06-10T08:53:14;26.70;95.80
53310;DHT22;39197;53.200;5.792;2023-06-10T08:55:45;27.00;95.60
53310;DHT22;39197;53.200;5.792;2023-06-10T08:58:13;27.40;94.80
53310;DHT22;39197;53.200;5.792;2023-06-10T09:00:39;27.20;93.80
53310;DHT22;39197;53.200;5.792;2023-06-10T09:03:05;27.50;93.80
53310;DHT22;39197;53.200;5.792;2023-06-10T09:05:33;27.40;94.00
53310;DHT22;39197;53.200;5.792;2023-06-10T09:08:00;27.40;93.80
53310;DHT22;39197;53.200;5.792;2023-06-10T09:10:27;27.70;93.60
53310;DHT22;39197;53.200;5.792;2023-06-10T09:12:53;27.70;94.10
53310;DHT22;39197;53.200;5.792;2023-06-10T09:15:20;28.00;93.70
53310;DHT22;39197;53.200;5.792;2023-06-10T09:17:46;27.90;93.40
53310;DHT22;39197;53.200;5.792;2023-06-10T09:20:11;28.20;93.20
53310;DHT22;39197;53.200;5.792;2023-06-10T09:22:37;28.60;93.10
53310;DHT22;39197;53.200;5.792;2023-06-10T09:25:08;28.40;91.60
53310;DHT22;39197;53.200;5.792;2023-06-10T09:27:51;28.50;90.90
53310;DHT22;39197;53.200;5.792;2023-06-10T09:30:30;28.50;90.30
53310;DHT22;39197;53.200;5.792;2023-06-10T09:32:58;28.20;90.90
53310;DHT22;39197;53.200;5.792;2023-06-10T09:35:25;28.60;91.30
53310;DHT22;39197;53.200;5.792;2023-06-10T09:37:57;28.90;90.50
53310;DHT22;39197;53.200;5.792;2023-06-10T09:40:23;29.10;88.90
53310;DHT22;39197;53.200;5.792;2023-06-10T09:42:56;29.20;89.50
53310;DHT22;39197;53.200;5.792;2023-06-10T09:45:23;29.60;86.50
53310;DHT22;39197;53.200;5.792;2023-06-10T09:47:55;29.30;84.00
53310;DHT22;39197;53.200;5.792;2023-06-10T09:50:22;29.20;83.10
53310;DHT22;39197;53.200;5.792;2023-06-10T09:52:48;29.00;84.90
53310;DHT22;39197;53.200;5.792;2023-06-10T09:55:14;29.10;86.50
53310;DHT22;39197;53.200;5.792;2023-06-10T09:57:39;28.90;84.00
53310;DHT22;39197;53.200;5.792;2023-06-10T10:00:08;29.00;83.50
53310;DHT22;39197;53.200;5.792;2023-06-10T10:02:51;29.20;85.50
53310;DHT22;39197;53.200;5.792;2023-06-10T10:05:18;29.40;85.80
53310;DHT22;39197;53.200;5.792;2023-06-10T10:07:45;29.30;85.40
53310;DHT22;39197;53.200;5.792;2023-06-10T10:10:12;29.60;83.80
53310;DHT22;39197;53.200;5.792;2023-06-10T10:12:38;30.00;83.00
53310;DHT22;39197;53.200;5.792;2023-06-10T10:15:09;30.10;81.90
53310;DHT22;39197;53.200;5.792;2023-06-10T10:17:43;30.00;80.80
53310;DHT22;39197;53.200;5.792;2023-06-10T10:20:13;30.20;79.80
53310;DHT22;39197;53.200;5.792;2023-06-10T10:22:41;30.00;78.70
53310;DHT22;39197;53.200;5.792;2023-06-10T10:25:13;30.20;78.50
53310;DHT22;39197;53.200;5.792;2023-06-10T10:28:11;30.30;77.80
53310;DHT22;39197;53.200;5.792;2023-06-10T10:30:51;30.50;79.30
53310;DHT22;39197;53.200;5.792;2023-06-10T10:36:15;30.40;77.40
53310;DHT22;39197;53.200;5.792;2023-06-10T10:38:41;30.70;79.10
53310;DHT22;39197;53.200;5.792;2023-06-10T10:41:08;30.50;78.50
53310;DHT22;39197;53.200;5.792;2023-06-10T10:43:35;30.70;76.90
53310;DHT22;39197;53.200;5.792;2023-06-10T10:46:02;31.00;76.80
53310;DHT22;39197;53.200;5.792;2023-06-10T10:48:38;30.90;72.80
53310;DHT22;39197;53.200;5.792;2023-06-10T10:51:07;30.60;70.90
53310;DHT22;39197;53.200;5.792;2023-06-10T10:53:33;30.80;73.30
53310;DHT22;39197;53.200;5.792;2023-06-10T10:56:07;30.50;74.20
53310;DHT22;39197;53.200;5.792;2023-06-10T10:58:40;30.90;74.60
53310;DHT22;39197;53.200;5.792;2023-06-10T11:01:13;31.20;75.00
53310;DHT22;39197;53.200;5.792;2023-06-10T11:03:44;31.20;77.20
53310;DHT22;39197;53.200;5.792;2023-06-10T11:06:17;31.20;78.00
53310;DHT22;39197;53.200;5.792;2023-06-10T11:11:21;31.80;76.10
53310;DHT22;39197;53.200;5.792;2023-06-10T11:14:07;31.80;75.30
53310;DHT22;39197;53.200;5.792;2023-06-10T11:16:40;32.10;75.00
53310;DHT22;39197;53.200;5.792;2023-06-10T11:19:07;32.00;74.70
53310;DHT22;39197;53.200;5.792;2023-06-10T11:24:21;32.00;71.70
53310;DHT22;39197;53.200;5.792;2023-06-10T11:26:47;32.10;73.00
53310;DHT22;39197;53.200;5.792;2023-06-10T11:29:15;32.10;74.10
53310;DHT22;39197;53.200;5.792;2023-06-10T11:31:46;32.30;72.40
53310;DHT22;39197;53.200;5.792;2023-06-10T11:34:15;32.00;72.70
53310;DHT22;39197;53.200;5.792;2023-06-10T11:36:42;32.20;71.60
53310;DHT22;39197;53.200;5.792;2023-06-10T11:39:10;32.50;71.50
53310;DHT22;39197;53.200;5.792;2023-06-10T11:41:38;32.60;71.20
53310;DHT22;39197;53.200;5.792;2023-06-10T11:44:13;32.20;71.50
53310;DHT22;39197;53.200;5.792;2023-06-10T11:46:40;32.30;71.40
53310;DHT22;39197;53.200;5.792;2023-06-10T11:49:08;32.40;71.10
53310;DHT22;39197;53.200;5.792;2023-06-10T11:51:38;32.20;70.50
53310;DHT22;39197;53.200;5.792;2023-06-10T11:54:08;32.00;70.60
53310;DHT22;39197;53.200;5.792;2023-06-10T11:56:34;32.40;71.50
53310;DHT22;39197;53.200;5.792;2023-06-10T11:59:04;32.80;71.70
53310;DHT22;39197;53.200;5.792;2023-06-10T12:01:36;32.60;72.40
53310;DHT22;39197;53.200;5.792;2023-06-10T12:04:07;32.60;74.30
53310;DHT22;39197;53.200;5.792;2023-06-10T12:06:46;32.60;79.20
53310;DHT22;39197;53.200;5.792;2023-06-10T12:09:21;32.80;81.40
53310;DHT22;39197;53.200;5.792;2023-06-10T12:12:02;31.60;84.40
53310;DHT22;39197;53.200;5.792;2023-06-10T12:14:51;31.30;87.10
53310;DHT22;39197;53.200;5.792;2023-06-10T12:19:57;32.60;85.60
53310;DHT22;39197;53.200;5.792;2023-06-10T12:22:23;32.40;86.20
53310;DHT22;39197;53.200;5.792;2023-06-10T12:25:02;32.00;86.70
53310;DHT22;39197;53.200;5.792;2023-06-10T12:27:35;32.00;87.10
53310;DHT22;39197;53.200;5.792;2023-06-10T12:30:04;31.80;88.20
53310;DHT22;39197;53.200;5.792;2023-06-10T12:32:42;31.90;88.70
53310;DHT22;39197;53.200;5.792;2023-06-10T12:35:10;31.50;90.10
53310;DHT22;39197;53.200;5.792;2023-06-10T12:37:37;31.30;90.70
53310;DHT22;39197;53.200;5.792;2023-06-10T12:40:04;31.60;90.40
53310;DHT22;39197;53.200;5.792;2023-06-10T12:42:39;31.80;90.00
53310;DHT22;39197;53.200;5.792;2023-06-10T12:45:06;31.30;90.20
53310;DHT22;39197;53.200;5.792;2023-06-10T12:48:11;31.50;90.30
53310;DHT22;39197;53.200;5.792;2023-06-10T12:50:39;31.40;90.90
53310;DHT22;39197;53.200;5.792;2023-06-10T12:53:05;31.20;91.40
53310;DHT22;39197;53.200;5.792;2023-06-10T12:55:32;31.70;91.20
53310;DHT22;39197;53.200;5.792;2023-06-10T12:57:59;31.50;90.70
53310;DHT22;39197;53.200;5.792;2023-06-10T13:00:27;30.60;91.90
53310;DHT22;39197;53.200;5.792;2023-06-10T13:02:55;30.60;92.50
53310;DHT22;39197;53.200;5.792;2023-06-10T13:05:21;30.80;92.70
53310;DHT22;39197;53.200;5.792;2023-06-10T13:07:48;30.40;92.80
53310;DHT22;39197;53.200;5.792;2023-06-10T13:10:15;29.80;93.80
53310;DHT22;39197;53.200;5.792;2023-06-10T13:12:50;29.50;94.00
53310;DHT22;39197;53.200;5.792;2023-06-10T13:15:17;29.90;94.20
53310;DHT22;39197;53.200;5.792;2023-06-10T13:17:44;30.30;93.60
53310;DHT22;39197;53.200;5.792;2023-06-10T13:20:15;30.40;93.30
53310;DHT22;39197;53.200;5.792;2023-06-10T13:22:42;29.80;94.10
53310;DHT22;39197;53.200;5.792;2023-06-10T13:25:08;30.30;93.80
53310;DHT22;39197;53.200;5.792;2023-06-10T13:27:35;30.40;93.70
53310;DHT22;39197;53.200;5.792;2023-06-10T13:30:07;30.70;93.30
53310;DHT22;39197;53.200;5.792;2023-06-10T13:32:33;30.60;93.50
53310;DHT22;39197;53.200;5.792;2023-06-10T13:34:59;30.50;93.70
53310;DHT22;39197;53.200;5.792;2023-06-10T13:37:25;30.70;93.30
53310;DHT22;39197;53.200;5.792;2023-06-10T13:39:52;30.10;93.80
53310;DHT22;39197;53.200;5.792;2023-06-10T13:42:19;30.40;93.70
53310;DHT22;39197;53.200;5.792;2023-06-10T13:44:47;30.00;93.90
53310;DHT22;39197;53.200;5.792;2023-06-10T13:47:16;29.80;94.40
53310;DHT22;39197;53.200;5.792;2023-06-10T13:49:42;29.30;94.90
53310;DHT22;39197;53.200;5.792;2023-06-10T13:52:08;29.10;95.90
53310;DHT22;39197;53.200;5.792;2023-06-10T13:54:34;29.60;95.30
53310;DHT22;39197;53.200;5.792;2023-06-10T13:57:03;29.30;95.70
53310;DHT22;39197;53.200;5.792;2023-06-10T13:59:29;29.40;96.20
53310;DHT22;39197;53.200;5.792;2023-06-10T14:02:01;29.50;96.00
53310;DHT22;39197;53.200;5.792;2023-06-10T14:04:27;29.30;96.50
53310;DHT22;39197;53.200;5.792;2023-06-10T14:06:53;29.20;96.90
53310;DHT22;39197;53.200;5.792;2023-06-10T14:09:18;29.30;96.50
53310;DHT22;39197;53.200;5.792;2023-06-10T14:11:44;29.30;96.60
53310;DHT22;39197;53.200;5.792;2023-06-10T14:14:10;29.40;96.90
53310;DHT22;39197;53.200;5.792;2023-06-10T14:16:36;29.30;96.90
53310;DHT22;39197;53.200;5.792;2023-06-10T14:19:05;29.50;96.50
53310;DHT22;39197;53.200;5.792;2023-06-10T14:21:31;29.70;96.20
53310;DHT22;39197;53.200;5.792;2023-06-10T14:23:56;29.70;96.60
53310;DHT22;39197;53.200;5.792;2023-06-10T14:26:22;29.60;96.80
53310;DHT22;39197;53.200;5.792;2023-06-10T14:28:49;29.80;96.40
53310;DHT22;39197;53.200;5.792;2023-06-10T14:31:15;29.40;96.40
53310;DHT22;39197;53.200;5.792;2023-06-10T14:33:44;29.40;96.50
53310;DHT22;39197;53.200;5.792;2023-06-10T14:36:10;29.10;96.90
53310;DHT22;39197;53.200;5.792;2023-06-10T14:38:36;29.20;97.10
53310;DHT22;39197;53.200;5.792;2023-06-10T14:41:02;29.70;96.50
53310;DHT22;39197;53.200;5.792;2023-06-10T14:43:28;29.60;96.50
53310;DHT22;39197;53.200;5.792;2023-06-10T14:45:55;29.70;95.90
53310;DHT22;39197;53.200;5.792;2023-06-10T14:48:21;29.80;95.60
53310;DHT22;39197;53.200;5.792;2023-06-10T14:50:49;29.30;96.20
53310;DHT22;39197;53.200;5.792;2023-06-10T14:53:18;29.50;96.70
53310;DHT22;39197;53.200;5.792;2023-06-10T14:55:44;29.50;96.70
53310;DHT22;39197;53.200;5.792;2023-06-10T14:58:10;29.20;97.10
53310;DHT22;39197;53.200;5.792;2023-06-10T15:00:38;29.00;97.80
53310;DHT22;39197;53.200;5.792;2023-06-10T15:03:03;29.00;98.10
53310;DHT22;39197;53.200;5.792;2023-06-10T15:05:30;28.90;98.50
53310;DHT22;39197;53.200;5.792;2023-06-10T15:08:00;28.80;99.00
53310;DHT22;39197;53.200;5.792;2023-06-10T15:10:26;29.20;98.70
53310;DHT22;39197;53.200;5.792;2023-06-10T15:12:51;29.30;98.20
53310;DHT22;39197;53.200;5.792;2023-06-10T15:15:24;29.10;98.50
53310;DHT22;39197;53.200;5.792;2023-06-10T15:17:51;28.90;99.30
53310;DHT22;39197;53.200;5.792;2023-06-10T15:20:18;29.00;99.10
53310;DHT22;39197;53.200;5.792;2023-06-10T15:22:43;29.10;98.70
53310;DHT22;39197;53.200;5.792;2023-06-10T15:25:09;29.00;98.70
53310;DHT22;39197;53.200;5.792;2023-06-10T15:27:35;28.40;99.40
53310;DHT22;39197;53.200;5.792;2023-06-10T15:30:01;28.20;99.90
53310;DHT22;39197;53.200;5.792;2023-06-10T15:32:26;28.20;99.90
53310;DHT22;39197;53.200;5.792;2023-06-10T15:34:52;28.20;99.90
53310;DHT22;39197;53.200;5.792;2023-06-10T15:37:19;28.30;99.90
53310;DHT22;39197;53.200;5.792;2023-06-10T15:39:44;28.30;99.90
53310;DHT22;39197;53.200;5.792;2023-06-10T15:42:10;28.50;99.90
53310;DHT22;39197;53.200;5.792;2023-06-10T15:44:36;28.40;99.90